createdAt,value
2019-01-18T00:02:44.690Z,99.90
2019-01-18T00:05:46.472Z,99.90
2019-01-18T00:08:47.554Z,99.90
2019-01-18T00:11:49.011Z,99.90
2019-01-18T00:17:56.734Z,99.90
2019-01-18T00:20:58.290Z,99.90
2019-01-18T00:23:59.928Z,99.90
2019-01-18T00:27:00.842Z,99.90
2019-01-18T00:30:02.150Z,99.90
2019-01-18T00:33:03.750Z,99.90
2019-01-18T00:36:05.438Z,99.90
2019-01-18T00:39:07.382Z,99.90
2019-01-18T00:42:08.915Z,99.90
2019-01-18T00:51:34.643Z,99.90
2019-01-18T00:54:36.088Z,99.90
2019-01-18T00:57:37.709Z,99.90
2019-01-18T01:00:40.610Z,99.90
2019-01-18T01:03:42.358Z,99.90
2019-01-18T01:06:43.454Z,99.90
2019-01-18T01:09:44.514Z,99.90
2019-01-18T01:12:46.334Z,99.80
2019-01-18T01:18:54.874Z,99.50
2019-01-18T01:21:56.722Z,99.10
2019-01-18T01:24:58.524Z,98.80
2019-01-18T01:28:00.230Z,99.10
2019-01-18T01:31:01.707Z,99.40
2019-01-18T01:34:03.324Z,99.60
2019-01-18T01:37:03.250Z,99.90
2019-01-18T01:49:46.903Z,99.90
2019-01-18T01:52:46.975Z,99.90
2019-01-18T01:59:09.626Z,99.90
2019-01-18T02:02:18.542Z,99.90
2019-01-18T02:05:19.586Z,99.90
2019-01-18T02:08:20.802Z,99.90
2019-01-18T02:11:22.514Z,99.90
2019-01-18T02:14:23.328Z,99.90
2019-01-18T02:20:31.639Z,99.90
2019-01-18T02:23:32.614Z,99.90
2019-01-18T02:26:33.844Z,99.90
2019-01-18T02:29:35.935Z,99.90
2019-01-18T02:32:36.784Z,99.90
2019-01-18T02:35:37.863Z,99.90
2019-01-18T02:38:39.275Z,99.90
2019-01-18T02:41:40.409Z,99.90
2019-01-18T02:44:41.599Z,99.90
2019-01-18T02:47:49.443Z,99.90
2019-01-18T02:50:50.992Z,99.90
2019-01-18T02:53:52.085Z,99.90
2019-01-18T02:56:53.414Z,99.90
2019-01-18T02:59:53.624Z,99.90
2019-01-18T03:02:54.480Z,99.90
2019-01-18T03:05:44.317Z,99.90
2019-01-18T03:08:53.154Z,99.90
2019-01-18T03:11:54.528Z,99.90
2019-01-18T03:14:55.882Z,99.90
2019-01-18T03:21:03.887Z,99.90
2019-01-18T03:24:05.195Z,99.90
2019-01-18T03:27:06.174Z,99.90
2019-01-18T03:30:18.221Z,99.90
2019-01-18T03:33:10.504Z,99.90
2019-01-18T03:36:12.054Z,99.90
2019-01-18T03:39:13.534Z,99.60
2019-01-18T03:42:15.070Z,99.80
2019-01-18T03:45:16.375Z,99.50
2019-01-18T03:48:17.490Z,99.60
2019-01-18T03:51:19.255Z,99.60
2019-01-18T03:54:20.755Z,99.40
2019-01-18T03:57:20.838Z,99.20
2019-01-18T04:06:46.169Z,99.80
2019-01-18T04:09:47.516Z,99.90
2019-01-18T04:12:49.125Z,99.90
2019-01-18T04:15:50.051Z,99.90
2019-01-18T04:21:58.795Z,99.40
2019-01-18T04:24:59.842Z,99.80
2019-01-18T04:28:01.098Z,99.80
2019-01-18T04:31:02.102Z,99.90
2019-01-18T04:34:02.884Z,99.90
2019-01-18T04:37:04.790Z,99.90
2019-01-18T04:40:06.330Z,99.90
2019-01-18T04:43:07.862Z,99.80
2019-01-18T04:46:09.417Z,99.80
2019-01-18T04:49:10.607Z,99.90
2019-01-18T04:52:11.822Z,99.90
2019-01-18T04:55:12.728Z,99.90
2019-01-18T04:58:14.205Z,99.60
2019-01-18T05:01:16.040Z,99.70
2019-01-18T05:04:16.316Z,99.90
2019-01-18T05:07:25.021Z,99.90
2019-01-18T05:10:26.393Z,99.90
2019-01-18T05:13:27.691Z,99.90
2019-01-18T05:16:28.607Z,99.90
2019-01-18T05:22:36.401Z,99.90
2019-01-18T05:25:36.246Z,99.90
2019-01-18T05:28:45.121Z,99.90
2019-01-18T05:31:46.294Z,99.90
2019-01-18T05:34:45.927Z,99.90
2019-01-18T05:41:09.600Z,99.80
2019-01-18T05:44:11.254Z,99.80
2019-01-18T05:47:12.160Z,99.60
2019-01-18T05:53:22.239Z,99.90
2019-01-18T05:56:23.800Z,99.90
2019-01-18T05:59:25.093Z,99.70
2019-01-18T06:02:26.134Z,99.60
2019-01-18T06:05:16.382Z,99.90
2019-01-18T06:08:18.146Z,99.90
2019-01-18T06:11:08.062Z,99.90
2019-01-18T06:14:16.712Z,99.90
2019-01-18T06:17:18.009Z,99.90
2019-01-18T06:20:25.567Z,99.90
2019-01-18T06:23:27.628Z,99.90
2019-01-18T06:26:27.799Z,99.90
2019-01-18T06:32:42.967Z,99.90
2019-01-18T06:35:43.881Z,99.90
2019-01-18T06:38:45.513Z,99.90
2019-01-18T06:41:52.935Z,99.90
2019-01-18T06:48:10.047Z,99.90
2019-01-18T06:54:28.989Z,99.90
2019-01-18T06:57:28.965Z,99.90
2019-01-18T07:07:06.055Z,99.90
2019-01-18T07:10:07.338Z,99.90
2019-01-18T07:13:09.227Z,99.90
2019-01-18T07:16:10.539Z,99.90
2019-01-18T07:19:12.369Z,99.90
2019-01-18T07:22:14.246Z,99.90
2019-01-18T07:25:15.955Z,99.90
2019-01-18T07:28:17.604Z,99.90
2019-01-18T07:31:18.846Z,99.90
2019-01-18T07:34:20.471Z,99.90
2019-01-18T07:37:22.314Z,99.90
2019-01-18T07:40:23.735Z,99.90
2019-01-18T07:43:25.802Z,99.90
2019-01-18T07:46:27.491Z,99.90
2019-01-18T07:49:29.146Z,99.90
2019-01-18T07:52:36.395Z,99.90
2019-01-18T07:55:38.029Z,99.90
2019-01-18T07:58:39.068Z,99.90
2019-01-18T08:01:38.947Z,99.90
2019-01-18T08:07:43.626Z,99.90
2019-01-18T08:10:45.171Z,99.90
2019-01-18T08:13:46.355Z,99.90
2019-01-18T08:16:47.774Z,99.90
2019-01-18T08:19:47.656Z,99.90
2019-01-18T08:26:10.436Z,99.90
2019-01-18T08:29:19.126Z,99.90
2019-01-18T08:35:42.201Z,99.90
2019-01-18T08:38:43.450Z,99.90
2019-01-18T08:41:45.153Z,99.90
2019-01-18T08:44:46.344Z,99.90
2019-01-18T08:47:47.948Z,99.90
2019-01-18T08:50:49.471Z,99.90
2019-01-18T08:56:57.975Z,99.10
2019-01-18T08:59:59.735Z,98.90
2019-01-18T09:03:00.963Z,98.70
2019-01-18T09:06:10.056Z,98.10
2019-01-18T09:09:18.738Z,98.10
2019-01-18T09:12:08.436Z,98.30
2019-01-18T09:15:09.947Z,98.40
2019-01-18T09:21:10.039Z,98.50
2019-01-18T09:27:18.790Z,97.60
2019-01-18T09:30:20.092Z,97.20
2019-01-18T09:33:21.192Z,96.60
2019-01-18T09:36:22.371Z,96.50
2019-01-18T09:39:24.286Z,96.40
2019-01-18T09:42:14.132Z,95.80
2019-01-18T09:45:23.066Z,95.30
2019-01-18T09:48:30.040Z,95.10
2019-01-18T09:51:35.451Z,95.10
2019-01-18T09:54:25.167Z,95.40
2019-01-18T09:57:34.213Z,96.20
2019-01-18T10:00:35.837Z,96.90
2019-01-18T10:03:36.931Z,96.10
2019-01-18T10:06:38.695Z,95.60
2019-01-18T10:09:40.164Z,95.40
2019-01-18T10:12:41.358Z,95.50
2019-01-18T10:15:42.376Z,95.40
2019-01-18T10:18:43.312Z,95.40
2019-01-18T10:21:44.197Z,94.90
2019-01-18T10:27:52.547Z,93.10
2019-01-18T10:30:53.821Z,92.70
2019-01-18T10:33:54.842Z,92.20
2019-01-18T10:36:59.405Z,91.90
2019-01-18T10:40:00.611Z,91.80
2019-01-18T10:43:00.611Z,90.50
2019-01-18T10:46:09.687Z,90.40
2019-01-18T10:48:59.173Z,90.70
2019-01-18T10:58:48.780Z,88.40
2019-01-18T11:02:03.316Z,88.50
2019-01-18T11:05:00.031Z,88.30
2019-01-18T11:08:01.712Z,89.70
2019-01-18T11:11:02.710Z,90.20
2019-01-18T11:14:04.518Z,90.30
2019-01-18T11:17:05.831Z,86.60
2019-01-18T11:20:07.040Z,79.30
2019-01-18T11:23:07.017Z,79.40
2019-01-18T11:31:52.798Z,77.80
2019-01-18T11:34:53.651Z,79.40
2019-01-18T11:37:55.406Z,78.60
2019-01-18T11:40:59.553Z,77.20
2019-01-18T11:44:00.951Z,76.80
2019-01-18T11:47:02.274Z,76.60
2019-01-18T11:50:02.379Z,78.30
2019-01-18T11:59:52.086Z,81.70
2019-01-18T12:02:53.992Z,82.60
2019-01-18T12:05:55.507Z,82.60
2019-01-18T12:08:57.259Z,80.80
2019-01-18T12:11:58.635Z,80.10
2019-01-18T12:14:59.953Z,79.70
2019-01-18T12:17:49.788Z,80.20
2019-01-18T12:37:14.478Z,79.80
2019-01-18T12:40:16.298Z,78.30
2019-01-18T12:43:18.083Z,75.20
2019-01-18T12:46:19.864Z,72.80
2019-01-18T12:49:21.850Z,71.70
2019-01-18T12:52:23.308Z,71.10
2019-01-18T12:55:24.398Z,71.20
2019-01-18T12:58:32.249Z,72.70
2019-01-18T13:04:43.407Z,72.70
2019-01-18T13:07:45.472Z,72.60
2019-01-18T13:10:35.256Z,73.00
2019-01-18T13:13:25.600Z,73.60
2019-01-18T13:16:36.605Z,74.40
2019-01-18T13:19:45.358Z,74.20
2019-01-18T13:22:47.022Z,74.50
2019-01-18T13:25:48.282Z,74.60
2019-01-18T13:28:55.626Z,74.80
2019-01-18T13:31:57.723Z,75.60
2019-01-18T13:34:59.104Z,74.70
2019-01-18T13:38:01.122Z,73.60
2019-01-18T13:41:02.589Z,74.20
2019-01-18T13:47:07.403Z,75.90
2019-01-18T13:56:57.071Z,79.50
2019-01-18T14:00:04.278Z,81.30
2019-01-18T14:03:06.327Z,81.90
2019-01-18T14:06:07.858Z,85.60
2019-01-18T14:09:09.368Z,83.40
2019-01-18T14:12:10.971Z,82.10
2019-01-18T14:15:13.890Z,78.40
2019-01-18T14:18:15.142Z,77.60
2019-01-18T14:21:16.485Z,77.00
2019-01-18T14:24:18.199Z,76.50
2019-01-18T14:27:19.679Z,77.00
2019-01-18T14:33:28.250Z,73.10
2019-01-18T14:36:30.029Z,72.70
2019-01-18T14:39:31.648Z,72.00
2019-01-18T14:42:32.615Z,70.50
2019-01-18T14:45:34.511Z,70.90
2019-01-18T14:48:36.131Z,70.70
2019-01-18T14:51:37.687Z,69.80
2019-01-18T14:54:38.954Z,70.10
2019-01-18T14:57:40.812Z,69.20
2019-01-18T15:03:49.413Z,69.40
2019-01-18T15:06:51.226Z,69.80
2019-01-18T15:09:52.152Z,70.20
2019-01-18T15:12:53.720Z,70.50
2019-01-18T15:15:53.681Z,68.50
2019-01-18T15:28:49.914Z,68.70
2019-01-18T15:31:56.963Z,68.70
2019-01-18T15:34:59.482Z,69.60
2019-01-18T15:38:00.959Z,69.80
2019-01-18T15:41:01.544Z,68.00
2019-01-18T15:44:02.595Z,68.40
2019-01-18T15:47:03.556Z,68.90
2019-01-18T15:50:05.558Z,70.60
2019-01-18T15:53:07.472Z,71.90
2019-01-18T15:56:07.867Z,73.10
2019-01-18T15:59:08.990Z,74.30
2019-01-18T16:02:16.650Z,75.30
2019-01-18T16:05:18.711Z,75.80
2019-01-18T16:08:20.194Z,76.40
2019-01-18T16:11:21.586Z,76.80
2019-01-18T16:14:22.651Z,76.90
2019-01-18T16:17:23.931Z,77.00
2019-01-18T16:20:25.973Z,77.10
2019-01-18T16:23:27.288Z,77.70
2019-01-18T16:26:27.857Z,78.10
2019-01-18T16:42:47.718Z,79.40
2019-01-18T16:45:48.638Z,79.60
2019-01-18T16:48:50.382Z,80.40
2019-01-18T16:51:52.783Z,80.40
2019-01-18T16:54:54.326Z,80.80
2019-01-18T16:57:55.234Z,81.80
2019-01-18T17:07:11.661Z,84.70
2019-01-18T17:10:14.208Z,84.70
2019-01-18T17:13:15.966Z,84.60
2019-01-18T17:16:17.111Z,84.40
2019-01-18T17:19:18.839Z,84.60
2019-01-18T17:22:20.723Z,85.20
2019-01-18T17:25:22.759Z,86.20
2019-01-18T17:28:25.143Z,86.70
2019-01-18T17:31:26.905Z,87.00
2019-01-18T17:34:34.830Z,87.50
2019-01-18T17:37:54.669Z,88.10
2019-01-18T17:40:45.753Z,88.50
2019-01-18T17:43:47.060Z,89.00
2019-01-18T17:46:48.641Z,89.20
2019-01-18T17:50:08.888Z,89.40
2019-01-18T17:53:37.935Z,89.30
2019-01-18T17:56:40.559Z,89.50
2019-01-18T17:59:44.987Z,90.00
2019-01-18T18:02:46.395Z,90.00
2019-01-18T18:08:55.479Z,90.30
2019-01-18T18:11:56.920Z,90.40
2019-01-18T18:14:58.414Z,90.50
2019-01-18T18:17:59.890Z,90.70
2019-01-18T18:21:06.479Z,90.70
2019-01-18T18:24:08.999Z,90.80
2019-01-18T18:27:13.598Z,91.00
2019-01-18T18:30:43.018Z,91.20
2019-01-18T18:33:50.289Z,91.20
2019-01-18T18:39:54.502Z,91.50
2019-01-18T18:42:57.512Z,91.50
2019-01-18T18:45:58.959Z,91.40
2019-01-18T18:49:21.821Z,91.40
2019-01-18T18:55:55.659Z,91.70
2019-01-18T18:58:53.864Z,91.90
2019-01-18T19:02:22.647Z,91.90
2019-01-18T19:12:21.601Z,92.30
2019-01-18T19:15:23.502Z,92.40
2019-01-18T19:18:25.399Z,92.40
2019-01-18T19:21:30.497Z,92.80
2019-01-18T19:27:14.400Z,92.60
2019-01-18T19:30:15.618Z,92.70
2019-01-18T19:33:17.754Z,92.80
2019-01-18T19:43:32.198Z,92.90
2019-01-18T19:46:33.742Z,92.90
2019-01-18T19:49:35.730Z,92.80
2019-01-18T19:52:38.806Z,92.90
2019-01-18T19:55:40.216Z,92.70
2019-01-18T19:58:42.398Z,92.70
2019-01-18T20:01:45.559Z,92.90
2019-01-18T20:04:47.405Z,92.90
2019-01-18T20:07:48.229Z,93.00
2019-01-18T20:13:57.618Z,93.40
2019-01-18T20:16:59.681Z,93.50
2019-01-18T20:20:01.676Z,93.50
2019-01-18T20:23:04.337Z,93.60
2019-01-18T20:26:05.656Z,93.70
2019-01-18T20:29:07.683Z,93.70
2019-01-18T20:36:16.642Z,93.60
2019-01-18T20:39:17.972Z,93.70
2019-01-18T20:42:25.840Z,93.80
2019-01-18T20:45:28.327Z,94.10
2019-01-18T20:51:43.926Z,94.20
2019-01-18T20:54:45.827Z,94.40
2019-01-18T20:57:46.962Z,94.60
2019-01-18T21:01:07.194Z,94.70
2019-01-18T21:04:35.732Z,94.90
2019-01-18T21:07:37.409Z,94.60
2019-01-18T21:10:39.367Z,94.70
2019-01-18T21:13:47.038Z,94.70
2019-01-18T21:16:48.878Z,94.80
2019-01-18T21:19:50.231Z,94.70
2019-01-18T21:22:52.589Z,94.90
2019-01-18T21:25:53.818Z,94.90
2019-01-18T21:28:55.149Z,94.90
2019-01-18T21:31:56.401Z,94.90
2019-01-18T21:34:57.740Z,94.90
2019-01-18T21:37:59.905Z,94.80
2019-01-18T21:41:01.838Z,94.90
2019-01-18T21:44:08.769Z,94.80
2019-01-18T21:47:10.828Z,94.90
2019-01-18T21:50:12.643Z,94.90
2019-01-18T21:53:14.822Z,95.10
2019-01-18T21:56:16.759Z,95.00
2019-01-18T21:59:18.255Z,95.00
2019-01-18T22:02:19.963Z,95.20
2019-01-18T22:05:21.687Z,95.20
2019-01-18T22:08:22.969Z,95.40
2019-01-18T22:11:24.220Z,95.30
2019-01-18T22:14:31.495Z,95.30
2019-01-18T22:17:33.479Z,95.20
2019-01-18T22:20:34.384Z,95.20
2019-01-18T22:23:36.706Z,95.30
2019-01-18T22:26:38.521Z,95.30
2019-01-18T22:29:41.186Z,95.50
2019-01-18T22:32:42.823Z,95.20
2019-01-18T22:35:44.130Z,95.30
2019-01-18T22:38:45.077Z,95.30
2019-01-18T22:41:46.065Z,95.20
2019-01-18T22:44:53.287Z,95.10
2019-01-18T22:47:55.090Z,95.70
2019-01-18T22:50:56.092Z,95.60
2019-01-18T22:53:57.538Z,95.90
2019-01-18T22:56:59.417Z,95.70
2019-01-18T23:00:00.821Z,95.70
2019-01-18T23:03:01.764Z,95.60
2019-01-18T23:06:03.182Z,95.60
2019-01-18T23:09:06.362Z,95.50
2019-01-18T23:12:07.494Z,95.50
2019-01-18T23:15:14.837Z,95.50
2019-01-18T23:18:16.547Z,95.50
2019-01-18T23:21:17.978Z,95.50
2019-01-18T23:24:19.153Z,95.50
2019-01-18T23:27:21.199Z,95.50
2019-01-18T23:30:23.137Z,95.70
2019-01-18T23:33:24.643Z,95.70
2019-01-18T23:36:25.792Z,95.60
2019-01-18T23:39:26.848Z,95.50
2019-01-18T23:42:52.256Z,95.70
2019-01-18T23:46:18.639Z,95.60
2019-01-18T23:49:20.687Z,95.70
2019-01-18T23:52:48.823Z,95.70
2019-01-18T23:56:17.064Z,95.60
2019-01-18T23:59:18.351Z,95.50
